createdAt,value
2019-02-19T00:03:17.783Z,-0.30
2019-02-19T00:06:41.295Z,-0.40
2019-02-19T00:10:05.931Z,-0.40
2019-02-19T00:13:29.473Z,-0.30
2019-02-19T00:16:53.106Z,-0.20
2019-02-19T00:20:16.639Z,-0.20
2019-02-19T00:23:40.183Z,-0.20
2019-02-19T00:27:03.823Z,-0.30
2019-02-19T00:30:27.468Z,-0.30
2019-02-19T00:33:51.074Z,-0.30
2019-02-19T00:37:14.456Z,-0.40
2019-02-19T00:40:38.225Z,-0.50
2019-02-19T00:44:01.693Z,-0.50
2019-02-19T00:47:25.378Z,-0.50
2019-02-19T00:50:48.855Z,-0.60
2019-02-19T00:54:12.491Z,-0.60
2019-02-19T00:57:36.120Z,-0.70
2019-02-19T01:00:59.643Z,-0.60
2019-02-19T01:04:23.079Z,-0.60
2019-02-19T01:07:46.684Z,-0.60
2019-02-19T01:11:10.109Z,-0.60
2019-02-19T01:14:33.660Z,-0.70
2019-02-19T01:17:57.311Z,-0.70
2019-02-19T01:21:20.997Z,-0.80
2019-02-19T01:24:44.656Z,-0.70
2019-02-19T01:28:08.150Z,-0.70
2019-02-19T01:31:31.566Z,-0.70
2019-02-19T01:34:55.251Z,-0.80
2019-02-19T01:38:18.779Z,-0.90
2019-02-19T01:41:42.303Z,-0.90
2019-02-19T01:45:08.178Z,-0.90
2019-02-19T01:48:31.881Z,-0.90
2019-02-19T01:51:55.588Z,-0.80
2019-02-19T01:55:19.064Z,-0.80
2019-02-19T01:58:43.538Z,-0.70
2019-02-19T02:02:07.033Z,-0.70
2019-02-19T02:05:30.798Z,-0.70
2019-02-19T02:08:54.363Z,-0.70
2019-02-19T02:12:18.374Z,-0.80
2019-02-19T02:15:42.891Z,-1.00
2019-02-19T02:19:06.741Z,-1.10
2019-02-19T02:22:30.306Z,-1.10
2019-02-19T02:25:53.964Z,-1.10
2019-02-19T02:29:17.451Z,-1.10
2019-02-19T02:32:40.977Z,-1.10
2019-02-19T02:36:04.395Z,-1.10
2019-02-19T02:39:27.970Z,-1.20
2019-02-19T02:42:51.496Z,-1.00
2019-02-19T02:46:15.151Z,-1.10
2019-02-19T02:49:38.605Z,-1.20
2019-02-19T02:53:02.179Z,-1.20
2019-02-19T02:56:25.736Z,-1.20
2019-02-19T02:59:49.334Z,-1.20
2019-02-19T03:03:12.908Z,-1.00
2019-02-19T03:06:38.216Z,-1.00
2019-02-19T03:10:01.697Z,-1.10
2019-02-19T03:13:25.126Z,-1.10
2019-02-19T03:16:48.657Z,-1.20
2019-02-19T03:20:12.309Z,-1.30
2019-02-19T03:23:35.849Z,-1.40
2019-02-19T03:26:59.324Z,-1.40
2019-02-19T03:30:23.112Z,-1.50
2019-02-19T03:33:47.131Z,-1.60
2019-02-19T03:37:10.871Z,-1.70
2019-02-19T03:40:34.426Z,-1.70
2019-02-19T03:43:58.152Z,-1.70
2019-02-19T03:47:21.696Z,-1.70
2019-02-19T03:50:45.269Z,-1.70
2019-02-19T03:54:08.840Z,-1.70
2019-02-19T03:57:32.404Z,-1.80
2019-02-19T04:00:56.171Z,-1.70
2019-02-19T04:04:19.892Z,-1.50
2019-02-19T04:07:43.433Z,-1.40
2019-02-19T04:11:07.503Z,-1.40
2019-02-19T04:14:31.134Z,-1.40
2019-02-19T04:17:54.664Z,-1.60
2019-02-19T04:21:18.188Z,-1.70
2019-02-19T04:24:41.718Z,-1.70
2019-02-19T04:28:07.167Z,-1.80
2019-02-19T04:31:31.850Z,-1.90
2019-02-19T04:34:55.552Z,-2.00
2019-02-19T04:38:19.171Z,-2.10
2019-02-19T04:41:42.771Z,-2.20
2019-02-19T04:45:06.359Z,-2.20
2019-02-19T04:48:30.006Z,-2.10
2019-02-19T04:51:54.184Z,-2.10
2019-02-19T04:55:19.749Z,-2.10
2019-02-19T04:58:43.188Z,-2.10
2019-02-19T05:02:06.885Z,-2.00
2019-02-19T05:05:30.462Z,-2.00
2019-02-19T05:08:54.143Z,-2.00
2019-02-19T05:12:17.647Z,-2.00
2019-02-19T05:15:41.212Z,-1.90
2019-02-19T05:19:04.631Z,-1.90
2019-02-19T05:22:28.293Z,-1.90
2019-02-19T05:25:51.766Z,-1.90
2019-02-19T05:29:15.667Z,-2.00
2019-02-19T05:32:39.446Z,-2.10
2019-02-19T05:36:03.123Z,-2.00
2019-02-19T05:39:26.613Z,-2.10
2019-02-19T05:42:50.066Z,-2.10
2019-02-19T05:46:14.535Z,-2.10
2019-02-19T05:49:38.047Z,-2.10
2019-02-19T05:53:01.714Z,-2.20
2019-02-19T05:56:25.348Z,-2.20
2019-02-19T05:59:48.861Z,-1.90
2019-02-19T06:03:12.436Z,-1.60
2019-02-19T06:06:36.026Z,-1.30
2019-02-19T06:09:59.796Z,-0.80
2019-02-19T06:13:23.294Z,-0.30
2019-02-19T06:16:46.748Z,0.10
2019-02-19T06:20:10.815Z,0.50
2019-02-19T06:23:34.471Z,0.80
2019-02-19T06:26:58.679Z,1.10
2019-02-19T06:30:22.226Z,2.00
2019-02-19T06:33:46.627Z,2.50
2019-02-19T06:37:10.337Z,3.00
2019-02-19T06:40:33.771Z,3.50
2019-02-19T06:43:57.909Z,4.10
2019-02-19T06:47:21.665Z,4.90
2019-02-19T06:50:45.136Z,5.30
2019-02-19T06:54:11.283Z,6.20
2019-02-19T06:57:34.984Z,6.60
2019-02-19T07:00:58.728Z,7.20
2019-02-19T07:04:24.033Z,7.60
2019-02-19T07:07:47.922Z,8.40
2019-02-19T07:11:11.686Z,8.90
2019-02-19T07:14:35.438Z,9.40
2019-02-19T07:17:59.241Z,9.30
2019-02-19T07:21:22.883Z,9.90
2019-02-19T07:24:46.824Z,10.50
2019-02-19T07:28:10.785Z,10.40
2019-02-19T07:31:34.326Z,11.40
2019-02-19T07:34:58.971Z,12.40
2019-02-19T07:38:22.429Z,12.90
2019-02-19T07:41:46.076Z,14.00
2019-02-19T07:45:13.504Z,14.30
2019-02-19T07:48:37.323Z,15.10
2019-02-19T07:52:00.924Z,15.40
2019-02-19T07:55:24.502Z,16.50
2019-02-19T07:58:48.066Z,15.80
2019-02-19T08:02:11.620Z,14.70
2019-02-19T08:05:35.174Z,14.60
2019-02-19T08:08:58.993Z,14.90
2019-02-19T08:12:22.624Z,14.20
2019-02-19T08:15:46.234Z,13.50
2019-02-19T08:19:09.774Z,13.70
2019-02-19T08:22:33.351Z,14.00
2019-02-19T08:25:57.088Z,14.50
2019-02-19T08:29:20.723Z,16.00
2019-02-19T08:32:44.269Z,15.40
2019-02-19T08:36:07.889Z,15.40
2019-02-19T08:39:31.740Z,16.20
2019-02-19T08:42:55.546Z,16.70
2019-02-19T08:46:19.173Z,16.40
2019-02-19T08:49:42.898Z,17.40
2019-02-19T08:53:06.578Z,19.30
2019-02-19T08:56:30.254Z,20.50
2019-02-19T08:59:56.486Z,20.10
2019-02-19T09:03:19.951Z,20.00
2019-02-19T09:06:43.500Z,20.40
2019-02-19T09:10:10.058Z,20.70
2019-02-19T09:13:33.828Z,20.90
2019-02-19T09:16:57.304Z,22.20
2019-02-19T09:20:20.806Z,23.00
2019-02-19T09:23:44.481Z,21.90
2019-02-19T09:27:08.103Z,21.90
2019-02-19T09:30:31.721Z,21.10
2019-02-19T09:33:55.471Z,21.80
2019-02-19T09:37:19.239Z,22.00
2019-02-19T09:40:42.914Z,22.00
2019-02-19T09:44:07.558Z,21.90
2019-02-19T09:47:31.128Z,20.50
2019-02-19T09:50:54.799Z,21.10
2019-02-19T09:54:18.375Z,20.60
2019-02-19T09:57:41.857Z,21.30
2019-02-19T10:01:05.488Z,21.20
2019-02-19T10:04:29.252Z,21.50
2019-02-19T10:07:52.825Z,21.20
2019-02-19T10:11:19.521Z,21.20
2019-02-19T10:14:43.910Z,21.40
2019-02-19T10:18:10.219Z,19.60
2019-02-19T10:21:32.864Z,21.50
2019-02-19T10:24:56.636Z,19.80
2019-02-19T10:28:21.070Z,20.80
2019-02-19T10:31:44.641Z,20.90
2019-02-19T10:35:10.163Z,20.30
2019-02-19T10:38:33.729Z,20.40
2019-02-19T10:41:57.304Z,20.20
2019-02-19T10:45:24.840Z,21.20
2019-02-19T10:48:48.475Z,20.80
2019-02-19T10:52:12.329Z,20.80
2019-02-19T10:55:35.976Z,21.20
2019-02-19T10:59:00.017Z,21.00
2019-02-19T11:02:23.483Z,21.60
2019-02-19T11:05:47.065Z,21.90
2019-02-19T11:09:10.615Z,21.60
2019-02-19T11:12:34.151Z,21.60
2019-02-19T11:15:57.826Z,21.60
2019-02-19T11:19:23.713Z,21.80
2019-02-19T11:22:48.903Z,21.70
2019-02-19T11:26:12.533Z,20.90
2019-02-19T11:29:36.032Z,19.70
2019-02-19T11:32:59.725Z,19.30
2019-02-19T11:36:23.305Z,19.50
2019-02-19T11:39:46.829Z,19.20
2019-02-19T11:43:10.453Z,19.30
2019-02-19T11:46:34.114Z,19.20
2019-02-19T11:49:58.528Z,19.90
2019-02-19T11:53:22.354Z,19.40
2019-02-19T11:56:45.908Z,19.80
2019-02-19T12:00:16.199Z,19.70
2019-02-19T12:03:39.763Z,19.80
2019-02-19T12:07:03.369Z,18.90
2019-02-19T12:10:27.021Z,19.30
2019-02-19T12:13:50.548Z,19.70
2019-02-19T12:17:14.061Z,19.80
2019-02-19T12:20:37.676Z,18.50
2019-02-19T12:24:01.173Z,18.90
2019-02-19T12:27:24.741Z,19.00
2019-02-19T12:30:48.530Z,18.40
2019-02-19T12:34:12.132Z,18.80
2019-02-19T12:37:35.782Z,18.90
2019-02-19T12:40:59.351Z,18.70
2019-02-19T12:44:22.881Z,18.70
2019-02-19T12:47:46.466Z,18.40
2019-02-19T12:51:09.969Z,18.00
2019-02-19T12:54:33.576Z,17.90
2019-02-19T12:57:57.258Z,18.40
2019-02-19T13:01:20.739Z,18.00
2019-02-19T13:04:44.934Z,17.40
2019-02-19T13:08:14.799Z,16.90
2019-02-19T13:11:41.334Z,17.00
2019-02-19T13:15:07.265Z,17.30
2019-02-19T13:18:30.959Z,17.40
2019-02-19T13:21:54.664Z,17.00
2019-02-19T13:25:18.247Z,16.60
2019-02-19T13:28:41.878Z,16.50
2019-02-19T13:32:05.490Z,16.10
2019-02-19T13:35:29.229Z,16.40
2019-02-19T13:38:52.902Z,16.20
2019-02-19T13:42:16.548Z,15.70
2019-02-19T13:45:40.170Z,15.90
2019-02-19T13:49:11.864Z,15.70
2019-02-19T13:52:30.623Z,15.60
2019-02-19T13:55:58.693Z,15.70
2019-02-19T13:59:22.271Z,15.50
2019-02-19T14:02:45.865Z,15.20
2019-02-19T14:06:09.627Z,14.80
2019-02-19T14:09:33.284Z,15.00
2019-02-19T14:12:57.039Z,15.00
2019-02-19T14:16:24.993Z,14.70
2019-02-19T14:19:50.129Z,15.00
2019-02-19T14:23:18.105Z,14.70
2019-02-19T14:26:43.276Z,14.50
2019-02-19T14:30:27.819Z,14.40
2019-02-19T14:33:53.008Z,14.40
2019-02-19T14:37:24.899Z,14.50
2019-02-19T14:41:08.534Z,14.20
2019-02-19T14:44:50.256Z,13.80
2019-02-19T14:48:18.619Z,13.90
2019-02-19T14:51:58.998Z,13.80
2019-02-19T14:55:24.163Z,13.70
2019-02-19T14:58:58.337Z,13.60
2019-02-19T15:02:35.727Z,13.30
2019-02-19T15:06:16.785Z,13.20
2019-02-19T15:09:59.906Z,13.20
2019-02-19T15:13:34.269Z,13.10
2019-02-19T15:17:02.425Z,12.70
2019-02-19T15:20:27.619Z,12.20
2019-02-19T15:24:06.239Z,11.80
2019-02-19T15:27:37.755Z,11.70
2019-02-19T15:31:05.824Z,11.40
2019-02-19T15:34:44.243Z,11.10
2019-02-19T15:38:12.628Z,10.90
2019-02-19T15:41:37.805Z,10.60
2019-02-19T15:45:18.225Z,10.40
2019-02-19T15:48:52.400Z,10.20
2019-02-19T15:52:17.855Z,10.00
2019-02-19T15:55:45.832Z,9.90
2019-02-19T15:59:26.709Z,9.70
2019-02-19T16:02:58.381Z,9.50
2019-02-19T16:06:23.792Z,9.40
2019-02-19T16:10:04.569Z,9.20
2019-02-19T16:13:29.881Z,9.10
2019-02-19T16:17:04.253Z,9.00
2019-02-19T16:20:35.686Z,8.80
2019-02-19T16:24:06.849Z,8.70
2019-02-19T16:27:47.294Z,8.60
2019-02-19T16:31:22.043Z,8.50
2019-02-19T16:34:50.176Z,8.50
2019-02-19T16:38:18.346Z,8.40
2019-02-19T16:41:50.053Z,8.20
2019-02-19T16:45:18.011Z,8.20
2019-02-19T16:48:56.551Z,8.10
2019-02-19T16:52:38.059Z,8.00
2019-02-19T16:56:15.643Z,7.80
2019-02-19T16:59:58.950Z,7.80
2019-02-19T17:03:33.042Z,7.70
2019-02-19T17:07:16.432Z,7.70
2019-02-19T17:11:00.186Z,7.60
2019-02-19T17:14:37.376Z,7.50
2019-02-19T17:18:05.482Z,7.40
2019-02-19T17:21:33.373Z,7.40
2019-02-19T17:25:01.428Z,7.40
2019-02-19T17:28:35.346Z,7.40
2019-02-19T17:32:16.629Z,7.30
2019-02-19T17:35:41.966Z,7.40
2019-02-19T17:39:16.885Z,7.50
2019-02-19T17:42:48.077Z,7.50
2019-02-19T17:46:25.440Z,7.40
2019-02-19T17:50:03.345Z,7.40
2019-02-19T17:53:42.853Z,7.40
2019-02-19T17:57:20.272Z,7.40
2019-02-19T18:00:51.244Z,7.40
2019-02-19T18:04:28.204Z,7.40
2019-02-19T18:07:59.738Z,7.50
2019-02-19T18:11:33.796Z,7.40
2019-02-19T18:15:08.172Z,7.30
2019-02-19T18:18:36.799Z,7.10
2019-02-19T18:22:00.534Z,7.00
2019-02-19T18:25:24.064Z,7.00
2019-02-19T18:28:47.999Z,7.00
2019-02-19T18:32:11.642Z,7.00
2019-02-19T18:35:36.656Z,6.90
2019-02-19T18:39:00.590Z,6.80
2019-02-19T18:42:24.272Z,6.80
2019-02-19T18:50:07.637Z,6.70
2019-02-19T18:53:31.471Z,6.50
2019-02-19T18:56:55.320Z,6.50
2019-02-19T19:00:18.892Z,6.30
2019-02-19T19:03:42.648Z,6.20
2019-02-19T19:07:07.264Z,6.00
2019-02-19T19:10:31.624Z,6.00
2019-02-19T19:13:55.205Z,5.80
2019-02-19T19:17:18.792Z,5.80
2019-02-19T19:20:42.659Z,5.70
2019-02-19T19:24:06.424Z,5.70
2019-02-19T19:27:31.274Z,5.80
2019-02-19T19:30:55.006Z,5.70
2019-02-19T19:34:18.788Z,5.70
2019-02-19T19:37:42.408Z,5.70
2019-02-19T19:41:06.060Z,5.90
2019-02-19T19:44:33.024Z,5.90
2019-02-19T19:47:56.786Z,6.00
2019-02-19T19:51:20.483Z,6.10
2019-02-19T19:54:44.978Z,6.10
2019-02-19T19:58:08.425Z,6.20
2019-02-19T20:01:32.061Z,6.30
2019-02-19T20:04:55.589Z,6.50
2019-02-19T20:08:20.294Z,6.70
2019-02-19T20:11:44.149Z,6.90
2019-02-19T20:15:10.249Z,7.00
2019-02-19T20:18:39.109Z,7.10
2019-02-19T20:22:00.557Z,7.20
2019-02-19T20:25:24.211Z,7.20
2019-02-19T20:28:50.740Z,7.30
2019-02-19T20:32:16.016Z,7.30
2019-02-19T20:35:39.514Z,7.30
2019-02-19T20:39:10.581Z,7.40
2019-02-19T20:42:34.551Z,7.40
2019-02-19T20:45:58.199Z,7.40
2019-02-19T20:49:24.617Z,7.40
2019-02-19T20:52:48.409Z,7.40
2019-02-19T20:56:14.958Z,7.30
2019-02-19T20:59:38.211Z,7.20
2019-02-19T21:03:01.803Z,7.20
2019-02-19T21:06:28.856Z,7.00
2019-02-19T21:09:52.482Z,6.90
2019-02-19T21:13:16.414Z,6.80
2019-02-19T21:16:40.162Z,6.60
2019-02-19T21:20:04.103Z,6.50
2019-02-19T21:23:27.976Z,6.30
2019-02-19T21:26:54.418Z,6.30
2019-02-19T21:30:18.009Z,6.20
2019-02-19T21:33:41.609Z,6.10
2019-02-19T21:37:05.351Z,6.00
2019-02-19T21:40:28.882Z,5.90
2019-02-19T21:43:52.715Z,5.90
2019-02-19T21:47:16.291Z,5.80
2019-02-19T21:50:39.790Z,5.80
2019-02-19T21:54:03.368Z,5.70
2019-02-19T21:57:27.007Z,5.70
2019-02-19T22:00:50.640Z,5.70
2019-02-19T22:04:14.236Z,5.60
2019-02-19T22:07:37.828Z,5.60
2019-02-19T22:11:01.413Z,5.60
2019-02-19T22:14:25.050Z,5.50
2019-02-19T22:17:48.699Z,5.50
2019-02-19T22:21:20.039Z,5.40
2019-02-19T22:24:43.683Z,5.30
2019-02-19T22:28:07.360Z,5.30
2019-02-19T22:31:31.046Z,5.20
2019-02-19T22:34:54.697Z,5.20
2019-02-19T22:38:18.390Z,5.20
2019-02-19T22:41:41.864Z,5.20
2019-02-19T22:45:06.934Z,5.20
2019-02-19T22:48:30.391Z,5.20
2019-02-19T22:51:53.888Z,5.10
2019-02-19T22:55:38.223Z,5.10
2019-02-19T22:59:01.671Z,5.10
2019-02-19T23:02:25.887Z,5.10
2019-02-19T23:05:49.570Z,5.10
2019-02-19T23:09:13.335Z,5.10
2019-02-19T23:12:36.906Z,5.10
2019-02-19T23:16:00.430Z,5.10
2019-02-19T23:19:23.882Z,5.00
2019-02-19T23:22:47.671Z,5.00
2019-02-19T23:26:14.114Z,5.00
2019-02-19T23:29:37.588Z,4.90
2019-02-19T23:33:01.364Z,4.80
2019-02-19T23:36:26.574Z,4.70
2019-02-19T23:39:50.258Z,4.60
2019-02-19T23:43:13.680Z,4.50
2019-02-19T23:46:37.223Z,4.50
2019-02-19T23:50:00.663Z,4.50
2019-02-19T23:53:24.226Z,4.50
2019-02-19T23:56:47.759Z,4.70
